»·PEaware :: AAL990 KLAX-KPHX

AAL990 :: KLAX-KPHX

FLIGHT INFORMATION

Flight Status: Arrived
Operator:
American Airlines
More flights by this operator :: More flights under this callsign
Pilot: Jamyson D. (13674)
Aircraft: BOEING 757-200
(B752)
More flights by this aircraft type
Origin: KLAX Los Angeles Intl
United States
Destination: KPHX Phoenix Sky Harbor Intl
United States
More flights between these airports :: More routes between these airports
Route: +DOTSS1 CNERY BLH HYDRR1
File this flight plan on PilotEdge
Remarks:
Altitude:
(Current/Filed)
37,000ft
Speed:
(Current/Filed)
428kts
Departed: 14-Jun-17 07:37 PM
Arrived: 14-Jun-17 08:39 PM
Distance/Time
Traveled:
321nm/1:02
Distance/Time
To Go:
Arrived

Flight Plot

Page will automatically refresh every two minutes.

Flight plan parsing failed; only flown route is shown


Map Options




Map Legend


Flown Route
Filed Route
Departure Airport
Arrival Airport
Navaid (VOR, NDB)
Fix

Horizontal Profiles

Position Reports

Time Latitude Longitude Heading Altitude Ground
Speed
14-Jun-17 19:15 33.939776 -118.407255 80 136ft 0kts
14-Jun-17 19:16 33.939776 -118.407255 80 136ft 0kts
14-Jun-17 19:17 33.939776 -118.407255 80 136ft 0kts
14-Jun-17 19:18 33.939776 -118.407255 80 136ft 0kts
14-Jun-17 19:19 33.939776 -118.407255 80 136ft 0kts
14-Jun-17 19:20 33.939776 -118.407255 80 136ft 0kts
14-Jun-17 19:21 33.939776 -118.407255 80 136ft 0kts
14-Jun-17 19:22 33.939776 -118.407255 80 136ft 0kts
14-Jun-17 19:23 33.939776 -118.407255 80 136ft 0kts
14-Jun-17 19:24 33.939776 -118.407255 80 136ft 0kts
14-Jun-17 19:25 33.939776 -118.407255 80 136ft 0kts
14-Jun-17 19:26 33.939776 -118.407255 80 136ft 0kts
14-Jun-17 19:27 33.939776 -118.407255 80 136ft 0kts
14-Jun-17 19:28 33.939769 -118.407604 113 136ft 2kts
14-Jun-17 19:29 33.940063 -118.408041 173 137ft 0kts
14-Jun-17 19:30 33.940064 -118.408041 173 137ft 0kts
14-Jun-17 19:31 33.940064 -118.408041 173 137ft 0kts
14-Jun-17 19:32 33.940064 -118.408041 173 137ft 0kts
14-Jun-17 19:33 33.939789 -118.408000 173 136ft 9kts
14-Jun-17 19:34 33.938526 -118.402364 83 136ft 23kts
14-Jun-17 19:35 33.939267 -118.395083 83 136ft 24kts
14-Jun-17 19:36 33.940098 -118.386963 83 136ft 25kts
14-Jun-17 19:37 33.940708 -118.381042 85 136ft 0kts
14-Jun-17 19:38 33.939874 -118.380259 242 136ft 7kts
14-Jun-17 19:39 33.937216 -118.406109 262 587ft 161kts
14-Jun-17 19:40 33.931062 -118.466976 259 3611ft 202kts
14-Jun-17 19:41 33.892837 -118.529541 233 7033ft 249kts
14-Jun-17 19:42 33.835252 -118.561452 169 10854ft 265kts
14-Jun-17 19:43 33.757030 -118.540942 169 13124ft 310kts
14-Jun-17 19:44 33.687481 -118.482035 113 15829ft 355kts
14-Jun-17 19:45 33.654894 -118.364610 106 17034ft 406kts
14-Jun-17 19:46 33.650305 -118.227357 91 20214ft 421kts
14-Jun-17 19:47 33.650122 -118.084562 91 22813ft 441kts
14-Jun-17 19:48 33.649914 -117.937202 91 24217ft 451kts
14-Jun-17 19:49 33.644825 -117.787096 103 26510ft 461kts
14-Jun-17 19:51 33.609920 -117.640220 107 28441ft 475kts
14-Jun-17 19:52 33.572272 -117.487528 107 30284ft 486kts
14-Jun-17 19:53 33.534449 -117.335468 107 31910ft 496kts
14-Jun-17 19:54 33.510043 -117.178407 91 33877ft 495kts
14-Jun-17 19:55 33.507482 -117.021212 91 35748ft 493kts
14-Jun-17 19:56 33.505034 -116.860361 91 36960ft 493kts
14-Jun-17 19:57 33.502427 -116.699157 91 36910ft 492kts
14-Jun-17 19:58 33.499598 -116.536616 91 36770ft 492kts
14-Jun-17 19:59 33.496811 -116.373170 90 36755ft 492kts
14-Jun-17 20:00 33.494407 -116.214597 91 36750ft 492kts
14-Jun-17 20:01 33.494186 -116.052203 82 36749ft 492kts
14-Jun-17 20:02 33.533857 -115.896067 69 36753ft 491kts
14-Jun-17 20:03 33.578508 -115.742099 69 36752ft 491kts
14-Jun-17 20:04 33.618872 -115.586781 82 36754ft 492kts
14-Jun-17 20:05 33.619015 -115.424123 91 36755ft 492kts
14-Jun-17 20:06 33.615294 -115.265520 92 36749ft 492kts
14-Jun-17 20:07 33.611178 -115.107438 92 36605ft 459kts
14-Jun-17 20:08 33.606987 -114.955728 92 34137ft 460kts
14-Jun-17 20:09 33.602649 -114.804318 92 31443ft 463kts
14-Jun-17 20:10 33.579581 -114.654256 103 29827ft 464kts
14-Jun-17 20:11 33.551302 -114.504288 103 29808ft 465kts
14-Jun-17 20:12 33.522089 -114.354431 103 29807ft 465kts
14-Jun-17 20:13 33.493683 -114.210097 104 28467ft 463kts
14-Jun-17 20:14 33.464759 -114.064162 104 25610ft 440kts
14-Jun-17 20:15 33.437527 -113.926427 103 25290ft 432kts
14-Jun-17 20:16 33.411357 -113.780867 103 25343ft 466kts
14-Jun-17 20:17 33.383695 -113.628382 103 25387ft 455kts
14-Jun-17 20:18 33.357555 -113.485413 103 25276ft 427kts
14-Jun-17 20:19 33.332828 -113.351104 103 25132ft 405kts
14-Jun-17 20:20 33.310540 -113.230763 104 24473ft 401kts
14-Jun-17 20:21 33.286469 -113.101550 104 23826ft 398kts
14-Jun-17 20:22 33.283672 -112.970431 89 23223ft 397kts
14-Jun-17 20:23 33.286841 -112.842194 89 22688ft 393kts
14-Jun-17 20:24 33.297835 -112.712780 84 22184ft 391kts
14-Jun-17 20:25 33.309905 -112.584987 84 21720ft 388kts
14-Jun-17 20:26 33.316379 -112.456792 85 21261ft 386kts
14-Jun-17 20:26 33.325230 -112.352235 84 20974ft 367kts
14-Jun-17 20:27 33.334502 -112.249423 84 18596ft 359kts
14-Jun-17 20:29 33.346623 -112.114944 83 15197ft 353kts
14-Jun-17 20:30 33.347491 -112.013843 90 12607ft 346kts
14-Jun-17 20:31 33.346917 -111.903322 88 9971ft 328kts
14-Jun-17 20:32 33.348234 -111.808010 87 9985ft 274kts
14-Jun-17 20:33 33.349569 -111.716045 87 8092ft 291kts
14-Jun-17 20:33 33.362835 -111.641000 40 6294ft 276kts
14-Jun-17 20:34 33.422075 -111.652165 294 4549ft 251kts
14-Jun-17 20:35 33.439706 -111.726925 269 4028ft 229kts
14-Jun-17 20:36 33.440322 -111.801866 269 4028ft 223kts
14-Jun-17 20:37 33.440578 -111.868083 269 3293ft 193kts
14-Jun-17 20:38 33.440723 -111.928051 269 2209ft 156kts
14-Jun-17 20:39 33.440668 -111.973842 269 1419ft 139kts
14-Jun-17 20:40 33.440836 -112.006089 270 1146ft 79kts
14-Jun-17 20:41 33.439700 -112.007696 112 1145ft 11kts

Navigation Log

Ident Type
Flight plan parsing failed, navigation log unavailable